LSGG/GVA METAR and TAF weather

Enter ICAO airport designator
Station Type Date Time Source
LSGG METAR 2021/07/31 00:20 UTC NOAA

LSGG 310020Z AUTO VRB02KT 9999 OVC065 19/16 Q1014 NOSIG


Station Type Date Time Source
LSGG Decoded METAR 2021/07/31 00:20 UTC NOAA

Geneve-Cointrin, Switzerland (LSGG) 46-15N 006-08E 416M
Jul 30, 2021 - 08:20 PM EDT / 2021.07.31 0020 UTC
Wind: Variable at 2 MPH (2 KT):0
Visibility: greater than 7 mile(s):0
Sky conditions: overcast
Temperature: 66 F (19 C)
Dew Point: 60 F (16 C)
Relative Humidity: 82%
Pressure (altimeter): 29.94 in. Hg (1014 hPa)
ob: LSGG 310020Z AUTO VRB02KT 9999 OVC065 19/16 Q1014 NOSIG
cycle: 0

Station Type Date Time Source
LSGG TAF 2021/07/30 21:36 UTC NOAA

TAF LSGG 302025Z 3021/0103 VRB03KT 9999 FEW040 SCT060 TX23/3115Z TN16/3104Z PROB30
TEMPO 3118/0103 SHRA

Example: see airport list